Time;durP1;ratioP1;P1;durP2;ratioP2;P2;SDS_P1;SDS_P2;PMS_P1;PMS_P2;Temp;Humidity;BMP_temperature;BMP_pressure;BME280_temperature;BME280_humidity;BME280_pressure;Samples;Min_cycle;Max_cycle;Signal;HPM_P1;HPM_P2
2023/08/06 00:02:23;;;;;;;5.20;4.13;;;;;;;-143.21;84.23;70658.59;5112868;27;20211;-79
2023/08/06 00:04:50;;;;;;;6.32;4.00;;;;;;;-143.21;83.65;70658.59;5112902;27;20657;-79
2023/08/06 00:07:18;;;;;;;7.05;3.70;;;;;;;-143.21;82.78;70676.44;5111467;27;20203;-79
2023/08/06 00:09:45;;;;;;;5.05;3.83;;;;;;;-143.21;81.24;70678.41;5111797;27;20196;-79
2023/08/06 00:12:12;;;;;;;6.18;4.13;;;;;;;-143.21;82.33;70674.44;5111870;27;20203;-80
2023/08/06 00:14:38;;;;;;;8.57;4.68;;;;;;;-143.21;84.85;70676.44;5112062;27;20207;-79
2023/08/06 00:17:05;;;;;;;5.05;3.78;;;;;;;-143.21;84.41;70664.53;5129568;27;20246;-79
2023/08/06 00:19:32;;;;;;;7.20;4.22;;;;;;;-143.21;83.08;70654.63;5112043;27;20231;-80
2023/08/06 00:21:59;;;;;;;7.45;4.15;;;;;;;-143.21;81.86;70656.59;5112248;27;20226;-79
2023/08/06 00:24:27;;;;;;;6.95;3.88;;;;;;;-143.21;81.63;70656.59;5112633;27;20210;-79
2023/08/06 00:26:54;;;;;;;6.78;3.70;;;;;;;-143.21;82.74;70654.63;5121672;27;20215;-79
2023/08/06 00:29:21;;;;;;;7.80;3.95;;;;;;;-143.21;80.68;70664.53;5110848;27;20207;-78
2023/08/06 00:31:48;;;;;;;6.30;3.80;;;;;;;-143.21;82.56;70654.63;5110593;27;20195;-79
2023/08/06 00:34:14;;;;;;;5.47;4.07;;;;;;;-143.21;83.33;70638.75;5122964;27;20204;-79
2023/08/06 00:36:41;;;;;;;4.85;3.90;;;;;;;-143.21;82.56;70630.84;5112692;27;20261;-81
2023/08/06 00:39:08;;;;;;;5.75;3.63;;;;;;;-143.21;83.51;70620.94;5128584;27;20223;-80
2023/08/06 00:41:38;;;;;;;4.40;3.88;;;;;;;-143.21;83.20;70616.97;5110956;27;20215;-80
2023/08/06 00:44:05;;;;;;;5.13;3.85;;;;;;;-143.21;82.65;70603.09;5111510;27;20211;-80
2023/08/06 00:46:33;;;;;;;7.30;4.13;;;;;;;-143.21;81.52;70605.06;5111790;27;20200;-80
2023/08/06 00:49:01;;;;;;;7.80;3.80;;;;;;;-143.21;80.69;70624.88;5127066;27;20203;-80
2023/08/06 00:51:28;;;;;;;7.30;3.90;;;;;;;-143.21;80.42;70638.75;5113162;27;20235;-81
2023/08/06 00:53:56;;;;;;;5.32;4.07;;;;;;;-143.21;80.63;70630.84;5111532;27;20216;-80
2023/08/06 00:56:24;;;;;;;5.18;4.00;;;;;;;-143.21;81.13;70634.81;5112025;27;20264;-81
2023/08/06 00:58:52;;;;;;;6.32;4.10;;;;;;;-143.21;81.89;70648.69;5121167;27;20625;-80
2023/08/06 01:01:19;;;;;;;6.10;3.67;;;;;;;-143.21;80.71;70642.72;5111117;27;20769;-81
2023/08/06 01:03:46;;;;;;;4.68;3.75;;;;;;;-143.21;80.26;70632.81;5111172;27;20203;-81
2023/08/06 01:06:12;;;;;;;7.35;3.60;;;;;;;-143.21;78.95;70638.75;5111248;27;20204;-80
2023/08/06 01:08:48;;;;;;;6.53;4.03;;;;;;;-143.21;78.95;70630.84;5124562;27;20601;-80
2023/08/06 01:11:27;;;;;;;7.68;4.22;;;;;;;-143.21;80.77;70628.84;5114362;27;20203;-80
2023/08/06 01:14:02;;;;;;;6.22;4.15;;;;;;;-143.21;82.47;70624.88;5111115;27;20215;-79
2023/08/06 01:16:31;;;;;;;6.75;4.32;;;;;;;-143.21;81.45;70626.88;5110803;27;20195;-79
2023/08/06 01:18:59;;;;;;;6.03;4.30;;;;;;;-143.21;80.32;70616.97;5126321;27;20210;-80
2023/08/06 01:21:27;;;;;;;6.85;4.35;;;;;;;-143.21;80.74;70614.97;5111219;27;20579;-80
2023/08/06 01:23:54;;;;;;;6.05;4.53;;;;;;;-143.21;81.64;70613.00;5115849;27;20211;-79
2023/08/06 01:26:26;;;;;;;6.20;4.68;;;;;;;-143.21;82.57;70613.00;5111346;27;20208;-81
2023/08/06 01:29:00;;;;;;;8.00;4.90;;;;;;;-143.21;82.04;70614.97;5125602;27;20204;-81
2023/08/06 01:31:31;;;;;;;6.82;5.18;;;;;;;-143.21;82.98;70626.88;5111228;27;20671;-82
2023/08/06 01:34:00;;;;;;;10.18;5.50;;;;;;;-143.21;83.90;70611.00;5116269;27;20195;-81
2023/08/06 01:36:29;;;;;;;7.50;5.00;;;;;;;-143.21;81.02;70581.28;5111238;27;20659;-88
2023/08/06 01:38:57;;;;;;;7.88;4.15;;;;;;;-143.21;79.79;70569.38;5125299;27;20262;-88
2023/08/06 01:41:24;;;;;;;6.32;4.15;;;;;;;-143.21;79.70;70571.38;5111524;27;20794;-88
2023/08/06 01:43:51;;;;;;;7.00;3.70;;;;;;;-143.21;79.37;70593.19;5124761;27;20195;-89
2023/08/06 01:46:18;;;;;;;6.40;4.70;;;;;;;-143.21;80.86;70609.03;5113988;27;20215;-88
2023/08/06 01:48:45;;;;;;;8.57;4.45;;;;;;;-143.21;81.60;70611.00;5110713;27;20204;-87
2023/08/06 01:51:11;;;;;;;5.63;4.35;;;;;;;-143.21;80.61;70616.97;5111621;27;20577;-89
2023/08/06 01:53:40;;;;;;;5.88;4.20;;;;;;;-143.21;81.04;70626.88;5113938;27;20215;-89
2023/08/06 01:56:06;;;;;;;8.23;4.65;;;;;;;-143.21;80.76;70638.75;5110862;27;20207;-89
2023/08/06 01:58:33;;;;;;;6.43;4.30;;;;;;;-143.21;82.39;70642.72;5111025;28;20212;-86
2023/08/06 02:01:00;;;;;;;7.00;4.38;;;;;;;-143.21;83.10;70630.84;5110493;27;20212;-87
2023/08/06 02:03:27;;;;;;;5.13;4.32;;;;;;;-143.21;82.46;70613.00;5109945;28;20203;-87
2023/08/06 02:05:54;;;;;;;7.38;4.20;;;;;;;-143.21;82.23;70599.13;5110455;27;20321;-88
2023/08/06 02:08:21;;;;;;;5.93;4.45;;;;;;;-143.21;81.47;70599.13;5110775;27;20210;-88
2023/08/06 02:10:49;;;;;;;5.50;4.20;;;;;;;-143.21;81.37;70597.13;5110921;27;20200;-88
2023/08/06 02:13:16;;;;;;;8.27;4.70;;;;;;;-143.21;81.77;70585.25;5111817;27;20200;-87
2023/08/06 02:15:47;;;;;;;5.30;4.47;;;;;;;-143.21;80.73;70571.38;5110679;28;20657;-87
2023/08/06 02:18:14;;;;;;;5.00;4.50;;;;;;;-143.21;80.29;70583.25;5110349;28;20636;-87
2023/08/06 02:20:41;;;;;;;5.80;4.63;;;;;;;-143.21;81.25;70632.81;5118926;27;20218;-86
2023/08/06 02:23:08;;;;;;;8.20;5.53;;;;;;;-143.21;83.19;70678.41;5118636;27;20203;-87
2023/08/06 02:25:35;;;;;;;9.75;5.40;;;;;;;-143.21;87.40;70700.22;5117841;27;20205;-87
2023/08/06 02:28:04;;;;;;;9.32;5.25;;;;;;;-143.21;88.87;70735.91;5119714;27;20256;-86
2023/08/06 02:30:31;;;;;;;8.23;5.32;;;;;;;-143.21;91.70;70743.81;5110052;28;20199;-87
2023/08/06 02:32:58;;;;;;;10.57;5.15;;;;;;;-143.21;92.39;70727.97;5111015;28;20223;-88
2023/08/06 02:35:25;;;;;;;9.82;5.72;;;;;;;-143.21;93.58;70696.25;5112098;28;20212;-87
2023/08/06 02:37:51;;;;;;;9.25;5.57;;;;;;;-143.21;92.25;70696.25;5109954;28;20256;-88
2023/08/06 02:40:18;;;;;;;6.45;4.57;;;;;;;-143.21;89.86;70720.03;5110318;28;20615;-88
2023/08/06 02:42:45;;;;;;;7.60;4.95;;;;;;;-143.21;90.46;70745.81;5109458;28;20196;-89
2023/08/06 02:45:14;;;;;;;12.38;5.38;;;;;;;-143.21;92.23;70755.72;5110454;28;20589;-89
2023/08/06 02:47:40;;;;;;;9.20;4.75;;;;;;;-143.21;91.11;70729.94;5110245;28;20210;-89
2023/08/06 02:50:08;;;;;;;7.63;4.90;;;;;;;-143.21;91.86;70714.09;5109789;28;20673;-89
2023/08/06 02:52:35;;;;;;;6.03;4.85;;;;;;;-143.21;91.42;70678.41;5110850;28;20236;-89
2023/08/06 02:55:01;;;;;;;7.28;4.72;;;;;;;-143.21;89.39;70638.75;5116230;27;20228;-89
2023/08/06 02:57:28;;;;;;;8.95;5.13;;;;;;;-143.21;89.49;70599.13;5128371;27;20670;-88
2023/08/06 02:59:55;;;;;;;9.02;4.65;;;;;;;-143.21;87.93;70593.19;5114090;27;20219;-88
2023/08/06 03:02:23;;;;;;;8.07;5.00;;;;;;;-143.21;87.85;70605.06;5114168;27;20207;-88
2023/08/06 03:04:50;;;;;;;9.30;4.68;;;;;;;-143.21;88.56;70605.06;5114162;27;20276;-89
2023/08/06 03:07:17;;;;;;;8.20;4.78;;;;;;;-143.21;87.79;70593.19;5113882;27;20773;-88
2023/08/06 03:09:44;;;;;;;7.47;4.88;;;;;;;-143.21;87.96;70561.47;5113909;27;20219;-88
2023/08/06 03:12:11;;;;;;;7.32;5.03;;;;;;;-143.21;87.41;70557.50;5113625;27;20208;-87
2023/08/06 03:14:38;;;;;;;7.88;4.40;;;;;;;-143.21;87.35;70591.19;5113819;27;20203;-88
2023/08/06 03:17:05;;;;;;;8.25;4.60;;;;;;;-143.21;86.43;70646.69;5114322;27;20459;-88
2023/08/06 03:19:33;;;;;;;6.70;4.45;;;;;;;-143.21;88.56;70648.69;5114621;27;20208;-87
2023/08/06 03:22:00;;;;;;;6.50;4.40;;;;;;;-143.21;90.31;70622.91;5130581;27;20231;-87
2023/08/06 03:24:27;;;;;;;7.60;4.72;;;;;;;-143.21;91.35;70620.94;5113722;27;20207;-87
2023/08/06 03:26:54;;;;;;;7.38;4.82;;;;;;;-143.21;90.41;70622.91;5113862;27;20200;-88
2023/08/06 03:29:21;;;;;;;5.70;4.32;;;;;;;-143.21;89.95;70605.06;5113272;27;20224;-79
2023/08/06 03:31:48;;;;;;;5.80;4.13;;;;;;;-143.21;86.30;70613.00;5130585;27;20215;-79
2023/08/06 03:34:14;;;;;;;7.10;4.20;;;;;;;-143.21;86.92;70613.00;5113321;28;20332;-79
2023/08/06 03:36:42;;;;;;;5.28;4.05;;;;;;;-143.21;87.40;70620.94;5129393;27;20207;-80
2023/08/06 03:39:09;;;;;;;7.18;4.60;;;;;;;-143.21;87.38;70614.97;5114146;27;20204;-79
2023/08/06 03:41:36;;;;;;;6.25;4.22;;;;;;;-143.21;86.80;70609.03;5112834;27;20223;-80
2023/08/06 03:44:03;;;;;;;6.28;4.05;;;;;;;-143.21;87.30;70609.03;5128788;27;20666;-80
2023/08/06 03:46:32;;;;;;;5.10;4.18;;;;;;;-143.21;87.56;70614.97;5113875;27;20211;-79
2023/08/06 03:48:59;;;;;;;4.63;3.90;;;;;;;-143.21;87.81;70609.03;5113358;27;20200;-79
2023/08/06 03:51:25;;;;;;;4.50;4.10;;;;;;;-143.21;88.68;70607.06;5127020;27;20348;-79
2023/08/06 03:53:54;;;;;;;6.20;4.18;;;;;;;-143.21;86.59;70614.97;5115019;27;20689;-79
2023/08/06 03:56:20;;;;;;;6.00;3.90;;;;;;;-143.21;86.51;70609.03;5112746;27;20211;-80
2023/08/06 03:58:47;;;;;;;6.20;4.38;;;;;;;-143.21;86.80;70605.06;5112639;27;20200;-79
2023/08/06 04:01:14;;;;;;;6.70;4.20;;;;;;;-143.21;88.15;70601.09;5112535;27;20224;-79
2023/08/06 04:03:41;;;;;;;5.65;5.07;;;;;;;-143.21;87.64;70601.09;5122418;27;20211;-79
2023/08/06 04:06:08;;;;;;;6.05;4.93;;;;;;;-143.21;87.80;70601.09;5125300;27;20214;-80
2023/08/06 04:08:35;;;;;;;6.70;4.93;;;;;;;-143.21;86.37;70587.22;5116571;27;20205;-80
2023/08/06 04:11:03;;;;;;;5.22;4.40;;;;;;;-143.21;85.31;70583.25;5112082;27;20203;-80
2023/08/06 04:13:30;;;;;;;5.93;4.50;;;;;;;-143.21;84.99;70597.13;5121739;27;20272;-79
2023/08/06 04:16:02;;;;;;;9.75;5.07;;;;;;;-143.21;85.38;70618.94;5112602;27;20208;-80
2023/08/06 04:18:28;;;;;;;7.32;4.80;;;;;;;-143.21;84.88;70650.66;5112232;27;20290;-80
2023/08/06 04:20:57;;;;;;;8.65;5.13;;;;;;;-143.21;86.31;70656.59;5112413;27;20216;-80
2023/08/06 04:23:24;;;;;;;7.60;5.50;;;;;;;-143.21;87.35;70658.59;5112451;27;20224;-81
2023/08/06 04:25:50;;;;;;;6.20;4.93;;;;;;;-143.21;88.35;70646.69;5120129;27;20203;-81
2023/08/06 04:28:20;;;;;;;7.80;5.43;;;;;;;-143.21;88.40;70626.88;5112843;27;20196;-81
2023/08/06 04:30:47;;;;;;;8.38;5.07;;;;;;;-143.21;88.98;70611.00;5121498;27;20207;-81
2023/08/06 04:33:13;;;;;;;13.00;10.60;;;;;;;-143.21;88.47;70597.13;5120091;27;20584;-80
2023/08/06 04:35:40;;;;;;;21.90;13.70;;;;;;;-143.21;87.22;70589.22;5112433;27;20207;-81
2023/08/06 04:38:07;;;;;;;23.50;12.63;;;;;;;-143.21;85.67;70587.22;5120137;27;20214;-81
2023/08/06 04:40:34;;;;;;;13.35;9.45;;;;;;;-143.21;85.71;70577.31;5121089;27;20637;-79
2023/08/06 04:43:01;;;;;;;7.72;5.93;;;;;;;-143.21;84.65;70565.44;5113000;27;20199;-80
2023/08/06 04:45:29;;;;;;;6.75;5.30;;;;;;;-143.21;85.35;70551.56;5118828;27;20223;-80
2023/08/06 04:47:56;;;;;;;6.13;5.05;;;;;;;-143.21;84.46;70535.69;5121485;27;20579;-81
2023/08/06 04:50:23;;;;;;;5.18;4.63;;;;;;;-143.21;84.12;70519.84;5111928;27;20212;-81
2023/08/06 04:52:51;;;;;;;6.65;4.50;;;;;;;-143.21;83.54;70517.84;5112484;27;20233;-82
2023/08/06 04:55:18;;;;;;;6.43;4.40;;;;;;;-143.21;84.31;70511.91;5112225;27;20215;-82
2023/08/06 04:57:45;;;;;;;6.38;4.25;;;;;;;-143.21;83.97;70507.94;5110683;27;20590;-82
2023/08/06 05:00:13;;;;;;;5.75;4.00;;;;;;;-143.21;83.67;70505.97;5111466;27;20232;-81
2023/08/06 05:02:41;;;;;;;6.15;4.30;;;;;;;-143.21;83.83;70503.97;5111797;27;20666;-81
2023/08/06 05:05:08;;;;;;;4.28;3.55;;;;;;;-143.21;83.98;70511.91;5115536;27;20207;-82
2023/08/06 05:07:35;;;;;;;5.57;3.60;;;;;;;-143.21;84.33;70521.81;5121888;27;20200;-82
2023/08/06 05:10:03;;;;;;;5.72;3.65;;;;;;;-143.21;84.98;70519.84;5115593;27;20207;-82
2023/08/06 05:12:32;;;;;;;5.47;4.03;;;;;;;-143.21;84.89;70519.84;5116799;27;20312;-82
2023/08/06 05:14:59;;;;;;;5.57;4.13;;;;;;;-143.21;84.59;70513.88;5113059;27;20287;-81
2023/08/06 05:17:25;;;;;;;5.82;4.32;;;;;;;-143.21;85.36;70519.84;5110451;27;20212;-81
2023/08/06 05:19:54;;;;;;;5.20;3.97;;;;;;;-143.21;84.86;70517.84;5111097;27;20693;-81
2023/08/06 05:22:20;;;;;;;8.57;5.40;;;;;;;-143.21;84.75;70523.81;5112099;27;20666;-81
2023/08/06 05:24:47;;;;;;;8.90;6.15;;;;;;;-143.21;84.99;70507.94;5112877;27;20674;-80
2023/08/06 05:27:14;;;;;;;9.65;7.18;;;;;;;-143.21;84.92;70492.09;5117268;27;20220;-82
2023/08/06 05:29:41;;;;;;;20.52;8.80;;;;;;;-143.21;83.96;70496.06;5111071;27;20207;-82
2023/08/06 05:32:09;;;;;;;12.75;9.57;;;;;;;-143.21;84.89;70500.00;5111286;27;20250;-81
2023/08/06 05:34:35;;;;;;;15.30;10.65;;;;;;;-143.21;83.99;70515.88;5095816;27;20208;-81
2023/08/06 05:37:04;;;;;;;12.77;10.43;;;;;;;-143.21;83.54;70541.63;5126611;27;20211;-81
2023/08/06 05:39:31;;;;;;;12.80;9.95;;;;;;;-143.21;84.57;70563.44;5109613;27;20232;-80
2023/08/06 05:41:58;;;;;;;10.75;7.82;;;;;;;-143.21;84.62;70559.47;5109096;27;20219;-81
2023/08/06 05:44:25;;;;;;;6.60;5.60;;;;;;;-143.21;82.52;70551.56;5109146;27;20215;-82
2023/08/06 05:46:53;;;;;;;5.18;4.60;;;;;;;-143.21;81.00;70541.63;5108591;27;20203;-80
2023/08/06 05:49:20;;;;;;;5.50;4.40;;;;;;;-143.21;81.92;70535.69;5126466;27;20199;-80
2023/08/06 05:51:48;;;;;;;6.45;4.43;;;;;;;-143.21;81.38;70527.75;5107074;27;20243;-80
2023/08/06 05:54:16;;;;;;;4.75;3.80;;;;;;;-143.21;82.03;70496.06;5109468;28;20605;-80
2023/08/06 05:56:43;;;;;;;5.32;3.50;;;;;;;-143.21;80.42;70478.22;5109515;27;20298;-80
2023/08/06 05:59:10;;;;;;;4.47;3.20;;;;;;;-143.21;77.54;70490.09;5126588;27;20669;-81
2023/08/06 06:01:37;;;;;;;4.80;3.15;;;;;;;-143.21;77.24;70502.00;5125058;27;20230;-82
2023/08/06 06:04:04;;;;;;;3.20;2.90;;;;;;;-143.21;77.29;70500.00;5108818;28;20231;-81
2023/08/06 06:06:30;;;;;;;5.53;3.22;;;;;;;-143.21;77.85;70498.03;5124214;27;20203;-81
2023/08/06 06:08:57;;;;;;;3.20;2.90;;;;;;;-143.21;77.02;70494.06;5109599;27;20204;-82
2023/08/06 06:11:25;;;;;;;3.13;2.83;;;;;;;-143.21;77.23;70486.16;5122640;27;20211;-82
2023/08/06 06:13:52;;;;;;;5.20;3.15;;;;;;;-143.21;76.51;70472.25;5108859;27;20208;-82
2023/08/06 06:16:19;;;;;;;3.60;2.85;;;;;;;-143.21;74.65;70450.47;5108252;28;20581;-81
2023/08/06 06:18:46;;;;;;;3.90;2.72;;;;;;;-143.21;70.34;70400.91;5121241;27;20290;-80
2023/08/06 06:21:13;;;;;;;3.28;2.85;;;;;;;-143.21;70.48;70375.16;5124468;27;20226;-81
2023/08/06 06:23:40;;;;;;;3.20;2.90;;;;;;;-143.21;70.76;70363.25;5114728;27;20214;-83
2023/08/06 06:26:07;;;;;;;4.65;2.78;;;;;;;-143.21;69.92;70353.34;5108422;27;20208;-81
2023/08/06 06:28:35;;;;;;;4.03;3.30;;;;;;;-143.21;66.86;70345.41;5108011;27;20196;-83
2023/08/06 06:31:03;;;;;;;4.68;3.00;;;;;;;-143.21;69.22;70331.53;5119260;27;20212;-80
2023/08/06 06:33:30;;;;;;;5.63;3.03;;;;;;;-143.21;68.70;70329.56;5113163;27;20261;-83
2023/08/06 06:35:57;;;;;;;6.03;3.30;;;;;;;-143.21;67.23;70329.56;5108623;28;20208;-87
2023/08/06 06:38:23;;;;;;;3.80;2.63;;;;;;;-143.21;67.42;70345.41;5109250;28;20200;-83
2023/08/06 06:40:55;;;;;;;3.50;3.08;;;;;;;-143.21;67.90;70349.38;5108311;28;20282;-83
2023/08/06 06:43:21;;;;;;;5.93;3.40;;;;;;;-143.21;69.39;70359.28;5107238;28;20223;-83
2023/08/06 06:45:53;;;;;;;5.85;3.10;;;;;;;-143.21;68.85;70377.13;5107395;28;20234;-81
2023/08/06 06:48:20;;;;;;;6.30;3.30;;;;;;;-143.21;69.81;70406.84;5117569;28;20206;-81
2023/08/06 06:50:48;;;;;;;6.55;3.22;;;;;;;-143.21;70.69;70398.94;5114521;28;20215;-82
2023/08/06 06:53:15;;;;;;;4.15;3.30;;;;;;;-143.21;69.42;70396.94;5105867;28;20231;-81
2023/08/06 06:55:42;;;;;;;3.60;3.25;;;;;;;-143.21;68.83;70379.09;5116255;27;20210;-81
2023/08/06 06:58:08;;;;;;;8.60;3.70;;;;;;;-143.21;68.13;70369.19;5123335;27;20565;-82
2023/08/06 07:00:36;;;;;;;4.40;3.55;;;;;;;-143.21;66.93;70373.16;5116520;27;20211;-81
2023/08/06 07:03:05;;;;;;;5.65;3.53;;;;;;;-143.21;67.86;70363.25;5108187;28;20223;-82
2023/08/06 07:05:32;;;;;;;7.75;3.10;;;;;;;-143.21;64.98;70353.34;5108228;28;20204;-85
2023/08/06 07:07:59;;;;;;;4.60;3.50;;;;;;;-143.21;66.01;70355.31;5106564;27;20360;-85
2023/08/06 07:10:27;;;;;;;5.70;3.42;;;;;;;-143.21;64.77;70351.38;5112983;28;20567;-88
2023/08/06 07:12:54;;;;;;;3.97;3.55;;;;;;;-143.21;64.62;70365.25;5117232;27;20654;-86
2023/08/06 07:15:21;;;;;;;4.13;3.33;;;;;;;-143.21;65.06;70391.00;5120111;28;20207;-85
2023/08/06 07:17:48;;;;;;;11.15;3.75;;;;;;;-143.21;65.76;70394.97;5109415;28;20220;-86
2023/08/06 07:20:16;;;;;;;7.65;3.95;;;;;;;-143.21;66.11;70406.84;5114029;28;20666;-85
2023/08/06 07:22:43;;;;;;;6.28;4.07;;;;;;;-143.21;66.12;70424.69;5120682;28;20925;-87
2023/08/06 07:25:10;;;;;;;4.57;3.20;;;;;;;-143.21;66.22;70414.78;5109390;28;20269;-87
2023/08/06 07:27:36;;;;;;;5.72;3.85;;;;;;;-143.21;65.20;70450.47;5114657;28;20206;-86
2023/08/06 07:30:05;;;;;;;6.07;3.50;;;;;;;-143.21;64.81;70482.19;5126166;28;20204;-86
2023/08/06 07:32:32;;;;;;;5.28;3.38;;;;;;;-143.21;65.05;70498.03;5113944;27;20214;-86
2023/08/06 07:35:00;;;;;;;4.55;3.42;;;;;;;-143.21;66.56;70505.97;5124565;28;21000;-86
2023/08/06 07:37:29;;;;;;;5.93;4.00;;;;;;;-143.21;66.61;70505.97;5110275;28;20211;-85
2023/08/06 07:39:56;;;;;;;6.22;3.70;;;;;;;-143.21;67.15;70507.94;5112095;27;20208;-86
2023/08/06 07:42:23;;;;;;;4.22;3.63;;;;;;;-143.21;67.08;70503.97;5113554;27;20236;-86
2023/08/06 07:44:52;;;;;;;4.25;3.65;;;;;;;-143.21;67.66;70494.06;5114311;27;20206;-86
2023/08/06 07:47:19;;;;;;;8.23;4.40;;;;;;;-143.21;66.68;70496.06;5114814;27;20211;-86
2023/08/06 07:49:46;;;;;;;6.90;3.95;;;;;;;-143.21;66.14;70484.16;5113280;27;20200;-87
2023/08/06 07:52:13;;;;;;;7.40;4.00;;;;;;;-143.21;65.84;70480.19;5112003;27;20231;-86
2023/08/06 07:54:42;;;;;;;6.53;4.13;;;;;;;-143.21;65.49;70468.31;5114191;27;20208;-86
2023/08/06 07:57:09;;;;;;;5.20;3.70;;;;;;;-143.21;67.32;70464.34;5114187;27;20224;-86
2023/08/06 07:59:35;;;;;;;7.15;3.80;;;;;;;-143.21;68.11;70438.56;5095421;28;20291;-86
2023/08/06 08:02:03;;;;;;;3.97;3.33;;;;;;;-143.21;67.35;70410.81;5113720;27;20229;-87
2023/08/06 08:04:30;;;;;;;5.25;3.55;;;;;;;-143.21;66.68;70389.03;5113333;27;20199;-87
2023/08/06 08:06:57;;;;;;;4.63;3.40;;;;;;;-143.21;65.63;70379.09;5113622;28;20200;-86
2023/08/06 08:09:24;;;;;;;5.38;3.47;;;;;;;-143.21;63.53;70400.91;5112664;27;20196;-86
2023/08/06 08:11:52;;;;;;;4.70;3.67;;;;;;;-143.21;64.91;70406.84;5113272;27;20208;-85
2023/08/06 08:14:19;;;;;;;6.00;3.45;;;;;;;-143.21;66.22;70394.97;5113431;27;20207;-86
2023/08/06 08:16:46;;;;;;;6.32;3.65;;;;;;;-143.21;65.90;70367.22;5113378;27;20202;-87
2023/08/06 08:19:13;;;;;;;4.97;3.80;;;;;;;-143.21;64.91;70333.53;5112964;28;20196;-86
2023/08/06 08:21:40;;;;;;;4.07;3.17;;;;;;;-143.21;63.51;70339.47;5112076;28;20243;-87
2023/08/06 08:24:06;;;;;;;3.97;3.55;;;;;;;-143.21;64.31;70321.63;5114190;27;20200;-87
2023/08/06 08:26:33;;;;;;;5.38;3.40;;;;;;;-143.21;63.29;70272.09;5115476;28;20212;-86
2023/08/06 08:29:02;;;;;;;3.70;3.13;;;;;;;-143.21;61.59;70258.22;5115566;27;20677;-86
2023/08/06 08:31:29;;;;;;;5.47;3.70;;;;;;;-143.21;61.57;70236.41;5116298;27;20207;-86
2023/08/06 08:34:00;;;;;;;9.15;3.70;;;;;;;-143.21;61.91;70240.38;5114428;28;20574;-86
2023/08/06 08:36:27;;;;;;;4.65;3.55;;;;;;;-143.21;61.29;70264.16;5129544;27;20249;-86
2023/08/06 08:38:54;;;;;;;4.70;3.80;;;;;;;-143.21;62.22;70278.03;5115898;27;20666;-87
2023/08/06 08:41:21;;;;;;;4.63;3.72;;;;;;;-143.21;63.08;70270.09;5114188;27;20641;-86
2023/08/06 08:43:51;;;;;;;4.72;3.70;;;;;;;-143.21;62.57;70282.00;5116473;27;20245;-86
2023/08/06 08:46:21;;;;;;;4.57;3.80;;;;;;;-143.21;62.38;70264.16;5113862;28;20222;-87
2023/08/06 08:48:50;;;;;;;10.13;4.35;;;;;;;-143.21;61.57;70238.38;5113086;27;20243;-86
2023/08/06 08:51:18;;;;;;;5.18;4.10;;;;;;;-143.21;60.55;70214.59;5124007;27;20720;-86
2023/08/06 08:53:45;;;;;;;4.75;3.50;;;;;;;-143.21;60.76;70210.63;5119902;27;20200;-86
2023/08/06 08:56:14;;;;;;;3.83;3.13;;;;;;;-143.21;60.44;70196.78;5111772;27;20237;-86
2023/08/06 08:58:41;;;;;;;4.57;3.60;;;;;;;-143.21;60.17;70186.84;5113596;27;20295;-86
2023/08/06 09:01:10;;;;;;;4.15;3.53;;;;;;;-143.21;59.22;70180.91;5113308;27;20212;-87
2023/08/06 09:03:41;;;;;;;4.88;3.75;;;;;;;-143.21;58.79;70171.00;5113065;27;20228;-87
2023/08/06 09:06:11;;;;;;;4.63;4.10;;;;;;;-143.21;59.89;70171.00;5124564;27;20685;-87
2023/08/06 09:08:44;;;;;;;5.10;3.75;;;;;;;-143.21;60.00;70180.91;5116581;27;20231;-86
2023/08/06 09:11:11;;;;;;;5.00;3.50;;;;;;;-143.21;59.66;70165.06;5126453;27;20295;-86
2023/08/06 09:13:39;;;;;;;7.10;3.60;;;;;;;-143.21;59.71;70137.31;5117179;27;20285;-87
2023/08/06 09:16:06;;;;;;;4.68;3.42;;;;;;;-143.21;59.04;70107.59;5113262;27;20204;-87
2023/08/06 09:18:33;;;;;;;4.20;3.53;;;;;;;-143.21;57.48;70103.63;5112866;27;20204;-85
2023/08/06 09:21:01;;;;;;;5.43;3.58;;;;;;;-143.21;57.63;70097.66;5111609;28;20208;-87
2023/08/06 09:23:35;;;;;;;6.25;3.85;;;;;;;-143.21;57.32;70101.63;5111951;27;20220;-86
2023/08/06 09:26:02;;;;;;;4.32;3.53;;;;;;;-143.21;56.70;70099.66;5114102;27;20207;-86
2023/08/06 09:28:39;;;;;;;3.35;3.03;;;;;;;-143.21;54.75;70101.63;5107520;27;20291;-88
2023/08/06 09:31:06;;;;;;;4.63;3.30;;;;;;;-143.21;55.82;70107.59;5112419;28;20265;-87
2023/08/06 09:33:33;;;;;;;4.70;3.13;;;;;;;-143.21;55.19;70087.75;5113770;27;20200;-87
2023/08/06 09:36:08;;;;;;;3.40;3.00;;;;;;;-143.21;54.60;70052.09;5114049;27;20307;-86
2023/08/06 09:38:39;;;;;;;3.92;3.05;;;;;;;-143.21;52.93;70008.50;5123780;27;20679;-86
2023/08/06 09:41:07;;;;;;;3.28;2.67;;;;;;;-143.21;51.87;69968.84;5125980;27;20231;-87
2023/08/06 09:43:41;;;;;;;2.92;2.50;;;;;;;-143.21;51.62;69945.06;5111895;27;20323;-87
2023/08/06 09:46:13;;;;;;;6.47;2.88;;;;;;;-143.21;49.81;69921.28;5112342;27;20208;-86
2023/08/06 09:48:40;;;;;;;2.88;2.40;;;;;;;-143.21;50.21;69962.91;5113716;27;20219;-87
2023/08/06 09:51:09;;;;;;;3.55;2.60;;;;;;;-143.21;50.05;69982.72;5112845;28;20688;-90
2023/08/06 09:53:38;;;;;;;3.45;2.55;;;;;;;-143.21;50.44;70024.34;5071050;28;20683;-86
2023/08/06 09:56:05;;;;;;;3.42;2.88;;;;;;;-143.21;51.05;70038.22;5072572;28;20284;-86
2023/08/06 09:58:33;;;;;;;3.10;2.70;;;;;;;-143.21;52.26;70042.19;5074147;28;20212;-85
2023/08/06 10:01:02;;;;;;;4.82;2.40;;;;;;;-143.21;50.86;70046.16;5071849;28;20284;-86
2023/08/06 10:03:31;;;;;;;3.22;2.70;;;;;;;-143.21;51.88;70062.00;5070887;28;20225;-85
2023/08/06 10:06:01;;;;;;;2.72;2.53;;;;;;;-143.21;52.78;70052.09;5070188;28;20288;-88
2023/08/06 10:08:30;;;;;;;3.25;2.75;;;;;;;-143.21;52.53;70046.16;5070991;28;20321;-87
2023/08/06 10:10:57;;;;;;;3.25;2.70;;;;;;;-143.21;51.66;70010.47;5069654;28;20267;-87
2023/08/06 10:13:25;;;;;;;4.07;2.90;;;;;;;-143.21;50.32;69996.59;5071864;28;20201;-88
2023/08/06 10:15:53;;;;;;;4.07;2.70;;;;;;;-143.21;50.41;69974.81;5071896;28;20678;-87
2023/08/06 10:18:22;;;;;;;4.82;3.00;;;;;;;-143.21;50.58;69947.06;5071975;28;20717;-86
2023/08/06 10:20:49;;;;;;;4.43;2.58;;;;;;;-143.21;50.23;69941.13;5071820;28;20205;-86
2023/08/06 10:23:17;;;;;;;4.72;2.72;;;;;;;-143.21;50.86;69947.06;5071290;28;20221;-86
2023/08/06 10:25:55;;;;;;;3.33;2.90;;;;;;;-143.21;52.25;69951.03;5070788;28;20197;-87
2023/08/06 10:28:22;;;;;;;4.97;3.08;;;;;;;-143.21;52.40;69943.09;5072100;28;20197;-86
2023/08/06 10:30:49;;;;;;;3.70;2.83;;;;;;;-143.21;50.78;69931.19;5071708;28;20208;-88
2023/08/06 10:33:17;;;;;;;3.40;2.83;;;;;;;-143.21;50.82;69962.91;5063736;28;20584;-86
2023/08/06 10:35:49;;;;;;;3.85;3.00;;;;;;;-143.21;50.88;69968.84;5063069;28;20259;-87
2023/08/06 10:38:16;;;;;;;31.65;19.27;;;;;;;-143.21;51.43;69954.97;5068486;28;20205;-80
2023/08/06 10:41:02;;;;;;;72.00;35.47;;;;;;;-143.21;51.33;69945.06;5068007;28;20237;-81
2023/08/06 10:43:31;;;;;;;9.55;4.80;;;;;;;-143.21;50.57;69966.88;5067825;28;20229;-81
2023/08/06 10:45:58;;;;;;;41.28;21.35;;;;;;;-143.21;51.44;69984.72;5067814;28;20652;-81
2023/08/06 10:48:32;;;;;;;112.07;47.53;;;;;;;-143.21;52.24;69982.72;5068095;28;20201;-82
2023/08/06 10:51:01;;;;;;;5.15;3.95;;;;;;;-143.21;50.91;69976.78;5067664;28;20193;-80
2023/08/06 10:53:28;;;;;;;7.32;3.50;;;;;;;-143.21;51.09;69972.81;5106883;28;20301;-80
2023/08/06 10:55:56;;;;;;;5.82;3.70;;;;;;;-143.21;49.81;69958.94;5109713;28;20203;-81
2023/08/06 10:58:24;;;;;;;6.72;3.40;;;;;;;-143.21;50.81;69964.91;5109272;28;20214;-82
2023/08/06 11:00:51;;;;;;;6.82;3.10;;;;;;;-143.21;51.36;70000.56;5109366;28;20582;-82
2023/08/06 11:03:18;;;;;;;4.20;2.90;;;;;;;-143.21;51.10;69998.59;5109612;28;20220;-82
2023/08/06 11:05:50;;;;;;;4.93;3.08;;;;;;;-143.21;50.16;69990.66;5116112;27;20203;-82
2023/08/06 11:08:24;;;;;;;4.13;3.33;;;;;;;-143.21;50.12;69998.59;5109635;28;20200;-82
2023/08/06 11:10:51;;;;;;;4.50;3.92;;;;;;;-143.21;50.96;70002.53;5108810;28;20195;-80
2023/08/06 11:13:19;;;;;;;6.60;3.75;;;;;;;-143.21;52.08;70010.47;5109602;28;20196;-81
2023/08/06 11:15:47;;;;;;;6.57;3.70;;;;;;;-143.21;51.96;70032.28;5113695;27;20231;-80
2023/08/06 11:18:14;;;;;;;6.65;3.70;;;;;;;-143.21;53.35;70050.09;5113318;27;20227;-80
2023/08/06 11:20:41;;;;;;;6.20;3.90;;;;;;;-143.21;53.11;70073.91;5113600;27;20196;-82